createdAt,value
2018-04-18T00:01:29.785Z,53.00
2018-04-18T00:03:57.419Z,53.10
2018-04-18T00:06:24.995Z,53.20
2018-04-18T00:08:52.556Z,53.50
2018-04-18T00:11:20.880Z,53.70
2018-04-18T00:13:48.433Z,53.70
2018-04-18T00:16:15.952Z,53.40
2018-04-18T00:18:44.517Z,53.60
2018-04-18T00:21:12.088Z,53.70
2018-04-18T00:23:39.620Z,53.70
2018-04-18T00:26:07.149Z,53.70
2018-04-18T00:28:34.740Z,53.80
2018-04-18T00:31:02.358Z,53.70
2018-04-18T00:33:29.898Z,53.80
2018-04-18T00:35:58.187Z,53.50
2018-04-18T00:38:25.780Z,53.40
2018-04-18T00:40:53.304Z,53.60
2018-04-18T00:43:20.866Z,53.80
2018-04-18T00:45:48.458Z,53.50
2018-04-18T00:48:16.130Z,53.50
2018-04-18T00:50:43.736Z,53.40
2018-04-18T00:53:11.297Z,53.60
2018-04-18T00:55:38.863Z,53.60
2018-04-18T00:58:07.186Z,54.00
2018-04-18T01:00:34.743Z,54.00
2018-04-18T01:03:02.269Z,54.00
2018-04-18T01:05:29.823Z,54.00
2018-04-18T01:07:57.383Z,54.00
2018-04-18T01:10:25.681Z,53.90
2018-04-18T01:12:53.230Z,53.80
2018-04-18T01:15:20.756Z,54.20
2018-04-18T01:17:49.101Z,53.70
2018-04-18T01:20:16.661Z,53.70
2018-04-18T01:22:44.239Z,53.70
2018-04-18T01:25:11.780Z,54.10
2018-04-18T01:27:39.394Z,54.30
2018-04-18T01:30:07.721Z,53.10
2018-04-18T01:32:35.289Z,54.20
2018-04-18T01:35:02.830Z,53.80
2018-04-18T01:37:30.408Z,53.60
2018-04-18T01:39:57.969Z,53.60
2018-04-18T01:42:25.510Z,53.70
2018-04-18T01:44:53.071Z,53.80
2018-04-18T01:47:20.604Z,53.90
2018-04-18T01:49:48.158Z,54.00
2018-04-18T01:52:15.764Z,53.90
2018-04-18T01:54:43.364Z,53.90
2018-04-18T01:57:11.748Z,54.10
2018-04-18T01:59:40.076Z,54.10
2018-04-18T02:02:07.594Z,54.10
2018-04-18T02:04:35.134Z,54.10
2018-04-18T02:07:02.686Z,54.20
2018-04-18T02:09:30.250Z,54.10
2018-04-18T02:11:58.593Z,53.90
2018-04-18T02:14:26.146Z,53.80
2018-04-18T02:16:53.680Z,53.80
2018-04-18T02:19:21.199Z,53.60
2018-04-18T02:21:48.786Z,53.60
2018-04-18T02:24:16.317Z,53.70
2018-04-18T02:26:43.914Z,54.00
2018-04-18T02:29:11.467Z,54.00
2018-04-18T02:31:38.998Z,53.90
2018-04-18T02:34:06.583Z,53.90
2018-04-18T02:36:34.146Z,54.20
2018-04-18T02:39:01.689Z,54.50
2018-04-18T02:41:29.271Z,54.60
2018-04-18T02:43:57.599Z,54.80
2018-04-18T02:46:25.128Z,54.50
2018-04-18T02:48:52.678Z,54.40
2018-04-18T02:51:20.273Z,54.50
2018-04-18T02:53:47.824Z,54.20
2018-04-18T02:56:15.364Z,54.30
2018-04-18T02:58:42.968Z,54.30
2018-04-18T03:01:10.465Z,54.20
2018-04-18T03:03:38.028Z,54.10
2018-04-18T03:06:06.643Z,54.00
2018-04-18T03:08:34.215Z,54.10
2018-04-18T03:11:01.748Z,54.10
2018-04-18T03:13:29.367Z,54.10
2018-04-18T03:15:57.666Z,54.40
2018-04-18T03:18:25.201Z,54.30
2018-04-18T03:20:53.536Z,54.40
2018-04-18T03:23:21.059Z,54.30
2018-04-18T03:25:48.656Z,54.40
2018-04-18T03:28:16.170Z,54.40
2018-04-18T03:30:43.736Z,54.50
2018-04-18T03:33:11.300Z,54.50
2018-04-18T03:35:38.861Z,54.70
2018-04-18T03:38:06.395Z,54.70
2018-04-18T03:40:34.715Z,55.40
2018-04-18T03:43:02.244Z,55.30
2018-04-18T03:45:30.570Z,55.20
2018-04-18T03:47:58.154Z,55.20
2018-04-18T03:50:25.689Z,55.20
2018-04-18T03:52:53.228Z,55.10
2018-04-18T03:55:20.790Z,55.30
2018-04-18T03:57:48.342Z,55.10
2018-04-18T04:00:15.935Z,55.10
2018-04-18T04:02:43.451Z,55.70
2018-04-18T04:05:11.113Z,54.90
2018-04-18T04:07:38.676Z,54.70
2018-04-18T04:10:06.223Z,54.60
2018-04-18T04:12:33.760Z,54.60
2018-04-18T04:15:01.294Z,54.60
2018-04-18T04:17:40.553Z,54.50
2018-04-18T04:20:31.671Z,54.60
2018-04-18T04:23:11.099Z,54.90
2018-04-18T04:25:38.693Z,55.00
2018-04-18T04:28:06.247Z,55.00
2018-04-18T04:30:33.941Z,55.20
2018-04-18T04:33:01.504Z,55.00
2018-04-18T04:35:29.038Z,54.80
2018-04-18T04:37:57.401Z,54.60
2018-04-18T04:40:24.970Z,54.60
2018-04-18T04:42:52.495Z,55.10
2018-04-18T04:45:20.090Z,54.60
2018-04-18T04:47:47.685Z,54.40
2018-04-18T04:50:15.209Z,54.40
2018-04-18T04:52:42.771Z,54.30
2018-04-18T04:55:10.330Z,54.40
2018-04-18T04:57:37.864Z,54.50
2018-04-18T05:00:06.246Z,54.70
2018-04-18T05:02:33.816Z,54.60
2018-04-18T05:05:01.511Z,54.60
2018-04-18T05:07:29.052Z,54.80
2018-04-18T05:09:56.616Z,54.60
2018-04-18T05:12:24.207Z,54.60
2018-04-18T05:14:51.768Z,54.50
2018-04-18T05:17:19.391Z,54.40
2018-04-18T05:19:46.976Z,54.40
2018-04-18T05:22:14.572Z,54.30
2018-04-18T05:24:42.116Z,54.40
2018-04-18T05:27:09.667Z,54.60
2018-04-18T05:29:37.214Z,54.70
2018-04-18T05:32:04.775Z,54.80
2018-04-18T05:34:32.328Z,54.90
2018-04-18T05:36:59.854Z,55.00
2018-04-18T05:39:27.534Z,55.00
2018-04-18T05:41:55.094Z,54.80
2018-04-18T05:44:22.676Z,54.50
2018-04-18T05:46:50.307Z,54.40
2018-04-18T05:49:17.898Z,54.40
2018-04-18T05:51:45.442Z,54.20
2018-04-18T05:54:13.030Z,54.30
2018-04-18T05:56:40.619Z,54.40
2018-04-18T05:59:08.266Z,54.40
2018-04-18T06:01:35.924Z,54.60
2018-04-18T06:04:03.510Z,54.80
2018-04-18T06:06:31.099Z,54.70
2018-04-18T06:08:58.694Z,54.70
2018-04-18T06:11:26.307Z,54.60
2018-04-18T06:13:53.846Z,54.50
2018-04-18T06:16:21.387Z,54.50
2018-04-18T06:18:49.087Z,54.50
2018-04-18T06:21:16.758Z,54.60
2018-04-18T06:23:44.340Z,54.50
2018-04-18T06:26:12.198Z,54.30
2018-04-18T06:28:39.803Z,54.30
2018-04-18T06:31:07.399Z,54.20
2018-04-18T06:33:35.754Z,53.80
2018-04-18T06:36:03.358Z,53.70
2018-04-18T06:38:31.074Z,53.70
2018-04-18T06:40:58.671Z,53.60
2018-04-18T06:43:26.315Z,53.20
2018-04-18T06:45:53.932Z,53.00
2018-04-18T06:48:21.706Z,52.90
2018-04-18T06:50:49.276Z,52.90
2018-04-18T06:53:16.840Z,52.90
2018-04-18T06:55:44.379Z,52.80
2018-04-18T06:58:12.417Z,52.70
2018-04-18T07:00:40.170Z,52.40
2018-04-18T07:03:08.749Z,52.10
2018-04-18T07:05:36.396Z,51.80
2018-04-18T07:08:03.978Z,51.60
2018-04-18T07:10:31.600Z,51.30
2018-04-18T07:12:59.167Z,51.40
2018-04-18T07:15:26.716Z,51.20
2018-04-18T07:17:54.962Z,51.10
2018-04-18T07:20:22.646Z,50.90
2018-04-18T07:22:50.361Z,50.70
2018-04-18T07:25:17.986Z,50.50
2018-04-18T07:27:45.654Z,50.20
2018-04-18T07:30:13.274Z,50.00
2018-04-18T07:32:42.183Z,49.40
2018-04-18T07:35:09.748Z,49.40
2018-04-18T07:37:37.916Z,49.20
2018-04-18T07:40:05.497Z,49.10
2018-04-18T07:42:33.181Z,49.10
2018-04-18T07:45:01.526Z,48.50
2018-04-18T07:47:29.980Z,48.50
2018-04-18T07:49:57.518Z,48.40
2018-04-18T07:52:25.127Z,48.20
2018-04-18T07:54:52.907Z,47.90
2018-04-18T07:57:20.609Z,47.90
2018-04-18T07:59:48.176Z,47.20
2018-04-18T08:02:15.729Z,47.20
2018-04-18T08:04:43.310Z,47.10
2018-04-18T08:07:10.851Z,47.10
2018-04-18T08:09:38.467Z,47.10
2018-04-18T08:12:06.291Z,46.50
2018-04-18T08:14:33.855Z,46.30
2018-04-18T08:17:01.467Z,46.50
2018-04-18T08:19:29.004Z,46.50
2018-04-18T08:21:56.798Z,46.40
2018-04-18T08:24:24.810Z,46.20
2018-04-18T08:26:52.357Z,46.00
2018-04-18T08:29:19.957Z,45.60
2018-04-18T08:31:47.480Z,45.20
2018-04-18T08:34:15.084Z,45.10
2018-04-18T08:36:42.686Z,45.10
2018-04-18T08:39:10.259Z,44.50
2018-04-18T08:41:42.854Z,43.80
2018-04-18T08:44:10.402Z,43.40
2018-04-18T08:46:38.015Z,43.00
2018-04-18T08:49:05.621Z,42.70
2018-04-18T08:51:33.180Z,43.00
2018-04-18T08:54:00.764Z,42.00
2018-04-18T08:56:28.335Z,41.80
2018-04-18T08:58:55.918Z,41.10
2018-04-18T09:01:23.448Z,41.10
2018-04-18T09:03:50.989Z,41.20
2018-04-18T09:06:18.556Z,41.10
2018-04-18T09:08:46.125Z,40.60
2018-04-18T09:11:13.681Z,40.60
2018-04-18T09:13:41.247Z,40.80
2018-04-18T09:16:08.812Z,40.70
2018-04-18T09:18:36.475Z,39.10
2018-04-18T09:21:04.053Z,39.50
2018-04-18T09:23:31.886Z,39.60
2018-04-18T09:25:59.962Z,39.10
2018-04-18T09:28:27.966Z,38.60
2018-04-18T09:30:56.339Z,39.10
2018-04-18T09:33:23.979Z,39.00
2018-04-18T09:35:51.566Z,38.60
2018-04-18T09:38:19.106Z,38.60
2018-04-18T09:40:46.723Z,39.60
2018-04-18T09:43:14.296Z,39.30
2018-04-18T09:45:41.942Z,39.30
2018-04-18T09:48:09.553Z,39.50
2018-04-18T09:50:37.942Z,39.10
2018-04-18T09:53:05.564Z,38.50
2018-04-18T09:55:33.150Z,37.80
2018-04-18T09:58:00.684Z,38.20
2018-04-18T10:03:26.113Z,39.90
2018-04-18T10:05:53.660Z,38.20
2018-04-18T10:08:21.226Z,38.00
2018-04-18T10:10:48.776Z,38.40
2018-04-18T10:13:16.339Z,37.90
2018-04-18T10:15:43.930Z,38.00
2018-04-18T10:18:11.529Z,37.90
2018-04-18T10:20:40.141Z,37.60
2018-04-18T10:23:08.660Z,37.50
2018-04-18T10:25:36.246Z,37.60
2018-04-18T10:28:03.837Z,37.50
2018-04-18T10:30:31.436Z,37.50
2018-04-18T10:32:59.108Z,38.40
2018-04-18T10:35:26.643Z,38.00
2018-04-18T10:37:54.200Z,36.70
2018-04-18T10:40:21.864Z,36.60
2018-04-18T10:42:49.410Z,36.40
2018-04-18T10:45:16.958Z,36.20
2018-04-18T10:47:45.235Z,35.40
2018-04-18T10:50:12.764Z,35.30
2018-04-18T10:52:40.382Z,35.30
2018-04-18T10:55:07.928Z,34.50
2018-04-18T10:57:35.503Z,34.80
2018-04-18T11:00:03.096Z,34.30
2018-04-18T11:02:30.697Z,32.60
2018-04-18T11:04:58.973Z,33.00
2018-04-18T11:07:27.337Z,33.60
2018-04-18T11:09:54.945Z,33.60
2018-04-18T11:12:22.556Z,34.70
2018-04-18T11:14:50.089Z,34.90
2018-04-18T11:17:17.658Z,35.10
2018-04-18T11:19:45.236Z,35.60
2018-04-18T11:22:12.843Z,35.40
2018-04-18T11:24:40.351Z,34.90
2018-04-18T11:27:07.931Z,34.90
2018-04-18T11:29:35.466Z,35.50
2018-04-18T11:32:03.097Z,34.40
2018-04-18T11:34:30.689Z,33.50
2018-04-18T11:36:58.346Z,33.80
2018-04-18T11:39:25.918Z,33.70
2018-04-18T11:41:54.364Z,33.40
2018-04-18T11:44:26.999Z,33.30
2018-04-18T11:46:54.654Z,32.20
2018-04-18T11:49:22.273Z,33.00
2018-04-18T11:51:50.019Z,33.70
2018-04-18T11:54:17.805Z,32.30
2018-04-18T11:56:47.027Z,32.60
2018-04-18T11:59:15.486Z,33.40
2018-04-18T12:01:43.091Z,33.40
2018-04-18T12:04:10.870Z,33.60
2018-04-18T12:06:38.551Z,31.90
2018-04-18T12:09:06.188Z,32.50
2018-04-18T12:11:33.773Z,33.40
2018-04-18T12:14:01.406Z,32.80
2018-04-18T12:16:28.992Z,32.90
2018-04-18T12:18:56.572Z,33.30
2018-04-18T12:21:24.160Z,33.70
2018-04-18T12:23:51.787Z,33.30
2018-04-18T12:26:19.487Z,33.60
2018-04-18T12:28:47.110Z,33.40
2018-04-18T12:31:14.686Z,33.80
2018-04-18T12:33:42.237Z,33.40
2018-04-18T12:36:09.846Z,34.00
2018-04-18T12:38:37.448Z,33.90
2018-04-18T12:41:05.257Z,33.80
2018-04-18T12:43:33.638Z,34.50
2018-04-18T12:46:01.967Z,34.60
2018-04-18T12:48:29.536Z,34.60
2018-04-18T12:50:57.114Z,34.20
2018-04-18T12:53:24.683Z,34.10
2018-04-18T12:55:52.262Z,33.40
2018-04-18T12:58:19.978Z,33.70
2018-04-18T13:00:47.551Z,33.10
2018-04-18T13:03:15.107Z,33.10
2018-04-18T13:05:42.923Z,32.90
2018-04-18T13:08:10.811Z,33.40
2018-04-18T13:10:38.443Z,33.30
2018-04-18T13:13:06.137Z,31.30
2018-04-18T13:15:33.880Z,30.70
2018-04-18T13:18:01.440Z,31.30
2018-04-18T13:20:29.001Z,31.40
2018-04-18T13:22:56.636Z,31.10
2018-04-18T13:25:25.060Z,31.10
2018-04-18T13:27:53.785Z,31.10
2018-04-18T13:30:21.366Z,31.00
2018-04-18T13:32:48.934Z,31.50
2018-04-18T13:35:17.323Z,29.30
2018-04-18T13:37:44.980Z,29.30
2018-04-18T13:40:12.568Z,30.90
2018-04-18T13:42:40.182Z,31.40
2018-04-18T13:45:07.775Z,31.00
2018-04-18T13:47:35.354Z,30.90
2018-04-18T13:50:02.881Z,29.70
2018-04-18T13:52:31.214Z,29.30
2018-04-18T13:54:58.842Z,29.30
2018-04-18T13:57:27.175Z,28.20
2018-04-18T13:59:54.839Z,28.20
2018-04-18T14:02:22.392Z,28.80
2018-04-18T14:04:50.100Z,29.70
2018-04-18T14:07:17.676Z,29.10
2018-04-18T14:09:45.203Z,26.80
2018-04-18T14:12:12.755Z,27.20
2018-04-18T14:14:41.279Z,28.20
2018-04-18T14:17:08.840Z,28.20
2018-04-18T14:19:36.394Z,27.90
2018-04-18T14:22:03.964Z,28.00
2018-04-18T14:24:31.528Z,28.10
2018-04-18T14:26:59.104Z,28.20
2018-04-18T14:29:26.639Z,28.20
2018-04-18T14:31:54.217Z,28.60
2018-04-18T14:34:21.851Z,29.10
2018-04-18T14:36:49.395Z,29.00
2018-04-18T14:39:17.018Z,28.90
2018-04-18T14:41:44.666Z,29.30
2018-04-18T14:44:12.251Z,29.60
2018-04-18T14:46:40.627Z,30.00
2018-04-18T14:49:08.267Z,29.90
2018-04-18T14:51:35.869Z,29.60
2018-04-18T14:54:04.195Z,29.90
2018-04-18T14:56:31.855Z,29.90
2018-04-18T14:58:59.454Z,30.00
2018-04-18T15:01:27.032Z,30.20
2018-04-18T15:03:54.558Z,30.10
2018-04-18T15:06:22.220Z,30.00
2018-04-18T15:08:49.759Z,30.20
2018-04-18T15:11:17.408Z,30.40
2018-04-18T15:13:45.629Z,30.50
2018-04-18T15:16:13.154Z,30.50
2018-04-18T15:18:40.727Z,30.80
2018-04-18T15:21:08.265Z,31.20
2018-04-18T15:23:35.852Z,30.90
2018-04-18T15:26:03.430Z,30.90
2018-04-18T15:28:31.013Z,30.70
2018-04-18T15:30:58.682Z,30.70
2018-04-18T15:33:26.322Z,31.00
2018-04-18T15:35:54.732Z,31.70
2018-04-18T15:38:22.317Z,31.70
2018-04-18T15:40:50.698Z,31.50
2018-04-18T15:43:18.257Z,32.10
2018-04-18T15:45:45.811Z,31.40
2018-04-18T15:48:13.379Z,31.60
2018-04-18T15:50:41.010Z,30.90
2018-04-18T15:53:08.550Z,30.50
2018-04-18T15:55:36.142Z,29.70
2018-04-18T15:58:03.695Z,29.80
2018-04-18T16:00:32.001Z,30.90
2018-04-18T16:02:59.591Z,30.90
2018-04-18T16:05:27.123Z,30.00
2018-04-18T16:07:54.662Z,29.80
2018-04-18T16:10:22.222Z,29.80
2018-04-18T16:12:50.518Z,29.30
2018-04-18T16:15:18.126Z,29.30
2018-04-18T16:17:46.444Z,29.40
2018-04-18T16:20:13.995Z,29.40
2018-04-18T16:22:41.580Z,29.30
2018-04-18T16:25:09.174Z,29.50
2018-04-18T16:27:36.703Z,29.50
2018-04-18T16:30:05.106Z,29.20
2018-04-18T16:32:33.474Z,29.10
2018-04-18T16:35:00.987Z,29.10
2018-04-18T16:37:28.602Z,29.30
2018-04-18T16:39:56.168Z,28.90
2018-04-18T16:42:23.728Z,29.30
2018-04-18T16:44:52.036Z,29.80
2018-04-18T16:47:19.595Z,29.70
2018-04-18T16:49:47.201Z,29.70
2018-04-18T16:52:14.750Z,29.60
2018-04-18T16:54:42.351Z,29.50
2018-04-18T16:57:10.010Z,30.00
2018-04-18T16:59:37.526Z,30.00
2018-04-18T17:02:05.066Z,29.90
2018-04-18T17:04:32.643Z,29.10
2018-04-18T17:07:00.162Z,29.20
2018-04-18T17:09:28.461Z,29.70
2018-04-18T17:11:56.033Z,29.70
2018-04-18T17:14:23.573Z,30.10
2018-04-18T17:16:51.162Z,30.30
2018-04-18T17:19:18.695Z,30.30
2018-04-18T17:21:46.222Z,31.00
2018-04-18T17:24:13.832Z,31.10
2018-04-18T17:26:41.418Z,31.50
2018-04-18T17:29:09.002Z,31.10
2018-04-18T17:31:36.553Z,31.70
2018-04-18T17:34:04.127Z,31.90
2018-04-18T17:36:31.710Z,31.80
2018-04-18T17:38:59.344Z,31.90
2018-04-18T17:41:26.871Z,31.50
2018-04-18T17:43:55.195Z,30.50
2018-04-18T17:46:23.470Z,31.30
2018-04-18T17:48:51.078Z,31.30
2018-04-18T17:51:18.609Z,30.80
2018-04-18T17:53:46.154Z,30.20
2018-04-18T17:56:14.450Z,31.50
2018-04-18T17:58:42.094Z,31.50
2018-04-18T18:01:09.656Z,30.50
2018-04-18T18:03:37.215Z,30.20
2018-04-18T18:06:04.781Z,30.80
2018-04-18T18:08:32.302Z,30.30
2018-04-18T18:10:59.862Z,30.40
2018-04-18T18:13:27.489Z,30.90
2018-04-18T18:15:55.052Z,31.30
2018-04-18T18:18:22.618Z,31.80
2018-04-18T18:20:50.290Z,31.90
2018-04-18T18:23:18.651Z,32.10
2018-04-18T18:25:46.251Z,32.00
2018-04-18T18:28:13.777Z,32.00
2018-04-18T18:30:41.387Z,32.00
2018-04-18T18:33:09.719Z,32.00
2018-04-18T18:35:37.272Z,32.00
2018-04-18T18:38:04.878Z,32.60
2018-04-18T18:40:32.386Z,33.10
2018-04-18T18:43:00.016Z,33.20
2018-04-18T18:45:27.572Z,33.60
2018-04-18T18:47:55.142Z,33.50
2018-04-18T18:50:22.701Z,33.80
2018-04-18T18:52:50.422Z,34.00
2018-04-18T18:55:17.983Z,34.20
2018-04-18T18:57:45.522Z,34.50
2018-04-18T19:00:13.180Z,34.90
2018-04-18T19:02:40.723Z,34.90
2018-04-18T19:05:08.406Z,34.90
2018-04-18T19:07:35.946Z,34.80
2018-04-18T19:10:03.498Z,34.90
2018-04-18T19:12:31.044Z,35.00
2018-04-18T19:14:58.617Z,35.50
2018-04-18T19:17:26.157Z,35.90
2018-04-18T19:19:54.459Z,36.70
2018-04-18T19:22:22.096Z,36.60
2018-04-18T19:24:49.604Z,36.90
2018-04-18T19:27:17.183Z,37.00
2018-04-18T19:29:44.740Z,37.60
2018-04-18T19:32:12.347Z,38.00
2018-04-18T19:34:40.039Z,38.30
2018-04-18T19:37:07.686Z,38.60
2018-04-18T19:39:35.260Z,39.20
2018-04-18T19:42:02.819Z,39.30
2018-04-18T19:44:30.375Z,39.70
2018-04-18T19:46:57.910Z,39.80
2018-04-18T19:49:25.497Z,40.00
2018-04-18T19:51:53.026Z,40.20
2018-04-18T19:54:20.619Z,40.50
2018-04-18T19:56:48.212Z,40.80
2018-04-18T19:59:16.574Z,41.20
2018-04-18T20:01:44.212Z,41.00
2018-04-18T20:04:11.786Z,41.40
2018-04-18T20:06:39.346Z,41.50
2018-04-18T20:09:06.903Z,41.70
2018-04-18T20:11:34.458Z,41.70
2018-04-18T20:14:01.995Z,42.10
2018-04-18T20:16:29.562Z,42.10
2018-04-18T20:18:57.168Z,42.50
2018-04-18T20:21:25.607Z,42.60
2018-04-18T20:23:53.129Z,42.60
2018-04-18T20:26:20.687Z,42.90
2018-04-18T20:28:48.286Z,43.00
2018-04-18T20:31:15.862Z,43.10
2018-04-18T20:33:43.481Z,43.30
2018-04-18T20:36:11.066Z,43.50
2018-04-18T20:38:38.670Z,43.50
2018-04-18T20:41:06.229Z,43.60
2018-04-18T20:43:33.817Z,44.50
2018-04-18T20:46:01.386Z,44.00
2018-04-18T20:48:29.181Z,44.10
2018-04-18T20:50:56.768Z,44.20
2018-04-18T20:53:25.105Z,44.30
2018-04-18T20:55:52.687Z,44.30
2018-04-18T20:58:20.244Z,44.40
2018-04-18T21:00:47.929Z,44.70
2018-04-18T21:03:15.528Z,44.70
2018-04-18T21:05:43.075Z,44.90
2018-04-18T21:08:10.659Z,44.80
2018-04-18T21:10:38.180Z,45.00
2018-04-18T21:13:06.551Z,45.40
2018-04-18T21:15:34.136Z,45.40
2018-04-18T21:18:01.795Z,45.40
2018-04-18T21:20:29.405Z,45.80
2018-04-18T21:22:57.008Z,45.80
2018-04-18T21:25:25.351Z,46.10
2018-04-18T21:27:52.961Z,46.10
2018-04-18T21:30:20.562Z,46.30
2018-04-18T21:32:48.171Z,46.50
2018-04-18T21:35:15.755Z,46.50
2018-04-18T21:37:43.368Z,46.50
2018-04-18T21:40:10.921Z,46.60
2018-04-18T21:42:38.522Z,46.80
2018-04-18T21:45:06.064Z,46.90
2018-04-18T21:47:33.739Z,47.00
2018-04-18T21:50:01.285Z,47.00
2018-04-18T21:52:28.883Z,47.10
2018-04-18T21:54:56.516Z,47.30
2018-04-18T21:57:24.123Z,47.40
2018-04-18T21:59:51.711Z,47.50
2018-04-18T22:02:19.245Z,47.70
2018-04-18T22:04:46.823Z,47.80
2018-04-18T22:07:14.372Z,47.70
2018-04-18T22:09:41.951Z,47.80
2018-04-18T22:12:09.518Z,47.90
2018-04-18T22:14:37.069Z,48.00
2018-04-18T22:17:04.639Z,48.30
2018-04-18T22:19:32.231Z,48.40
2018-04-18T22:21:59.788Z,48.30
2018-04-18T22:24:27.377Z,48.40
2018-04-18T22:26:54.914Z,48.50
2018-04-18T22:29:22.494Z,48.60
2018-04-18T22:31:50.025Z,48.60
2018-04-18T22:34:18.368Z,48.80
2018-04-18T22:36:45.958Z,48.80
2018-04-18T22:39:13.541Z,48.80
2018-04-18T22:41:41.090Z,48.90
2018-04-18T22:44:09.405Z,49.00
2018-04-18T22:46:36.966Z,48.90
2018-04-18T22:49:04.492Z,48.90
2018-04-18T22:51:32.074Z,48.70
2018-04-18T22:53:59.607Z,48.80
2018-04-18T22:56:27.168Z,48.90
2018-04-18T22:58:54.730Z,48.90
2018-04-18T23:01:22.280Z,48.80
2018-04-18T23:03:50.605Z,48.70
2018-04-18T23:06:18.176Z,48.70
2018-04-18T23:08:45.727Z,48.80
2018-04-18T23:11:13.286Z,48.80
2018-04-18T23:13:40.806Z,49.10
2018-04-18T23:16:08.380Z,49.00
2018-04-18T23:18:35.948Z,48.70
2018-04-18T23:21:03.531Z,49.40
2018-04-18T23:23:31.063Z,48.80
2018-04-18T23:25:58.631Z,49.30
2018-04-18T23:28:26.168Z,48.80
2018-04-18T23:30:53.720Z,48.80
2018-04-18T23:33:21.281Z,49.00
2018-04-18T23:35:48.808Z,49.00
2018-04-18T23:38:16.363Z,49.20
2018-04-18T23:40:43.924Z,49.40
2018-04-18T23:43:11.549Z,49.30
2018-04-18T23:45:39.090Z,49.20
2018-04-18T23:48:06.635Z,48.90
2018-04-18T23:50:34.195Z,48.70
2018-04-18T23:53:02.486Z,49.00
2018-04-18T23:55:30.032Z,48.90
2018-04-18T23:57:58.359Z,48.90
